Phoenix, Arizona
Traffic Map
Current Weather Conditions
Phoenix, Arizona
Overcast
Overcast
31°
Feels Like: 32°
Wind Chill: 31° Ceiling: 20000
Heat Index: 32° Visibility: 10mi
Dew Point: 18° Wind: 16mph
Humidity: 45% Direction: 70° (ENE)
Pressure: 29.89in Gusts: 0mph
Raw Report DataKPHX 260451Z 07014KT 10SM FEW090 SCT120 BKN200 OVC250 31/18 A2989 RMK AO2 PK WND 09026/0400 WSHFT 0338 SLP101 OCNL LTGIC DSNT NW CB DSNT NW T03110178
Traffic Incident Summary
Active as of:
Severity:
Category:
InformationThere was an issue retrieving the traffic information for this location. Please try a different location or try again shortly.
Advertisements
Track Severe Weather on mobile